Time;durP1;ratioP1;P1;durP2;ratioP2;P2;SDS_P1;SDS_P2;PMS_P1;PMS_P2;Temp;Humidity;BMP_temperature;BMP_pressure;BME280_temperature;BME280_humidity;BME280_pressure;Samples;Min_cycle;Max_cycle;Signal;HPM_P1;HPM_P2
2021/06/25 00:04:13;;;;;;;18.98;16.00;;;;;;;;;;4976311;28;40558;-81
2021/06/25 00:07:12;;;;;;;17.42;15.40;;;;;;;;;;4981995;28;38580;-81
2021/06/25 00:09:54;;;;;;;16.80;14.90;;;;;;;;;;5035656;23;48906;-81
2021/06/25 00:12:20;;;;;;;21.90;15.98;;;;;;;;;;4966743;28;37054;-81
2021/06/25 00:14:55;;;;;;;21.00;16.73;;;;;;;;;;4967256;28;39105;-81
2021/06/25 00:17:28;;;;;;;17.40;15.57;;;;;;;;;;4975101;28;38588;-81
2021/06/25 00:20:13;;;;;;;17.92;15.98;;;;;;;;;;4968739;28;38143;-82
2021/06/25 00:22:56;;;;;;;15.82;14.18;;;;;;;;;;4942645;28;48606;-82
2021/06/25 00:25:25;;;;;;;;;;;;;;;;;;4964000;28;38849;-81
2021/06/25 00:28:05;;;;;;;13.93;12.43;;;;;;;;;;4964002;28;39011;-81
2021/06/25 00:30:43;;;;;;;16.35;14.07;;;;;;;;;;4958610;28;48445;-80
2021/06/25 00:33:15;;;;;;;17.73;14.05;;;;;;;;;;4971891;28;37230;-80
2021/06/25 00:35:52;;;;;;;16.02;14.38;;;;;;;;;;4968029;28;37640;-81
2021/06/25 00:38:26;;;;;;;18.02;15.13;;;;;;;;;;4975099;28;37757;-81
2021/06/25 00:41:08;;;;;;;17.83;15.02;;;;;;;;;;4939845;28;39373;-81
2021/06/25 00:43:39;;;;;;;15.98;14.23;;;;;;;;;;4955318;28;48100;-81
2021/06/25 00:46:07;;;;;;;15.07;13.48;;;;;;;;;;4963033;28;39136;-81
2021/06/25 00:49:08;;;;;;;16.13;14.50;;;;;;;;;;4958431;28;38546;-81
2021/06/25 00:51:58;;;;;;;18.67;16.75;;;;;;;;;;4961486;28;48762;-82
2021/06/25 00:55:02;;;;;;;14.20;12.80;;;;;;;;;;4966198;28;37570;-81
2021/06/25 00:57:50;;;;;;;16.88;13.15;;;;;;;;;;4949498;28;39201;-82
2021/06/25 01:00:39;;;;;;;14.43;11.10;;;;;;;;;;4946709;28;39031;-81
2021/06/25 01:03:09;;;;;;;14.18;11.18;;;;;;;;;;4966754;28;38340;-81
2021/06/25 01:05:58;;;;;;;14.10;12.65;;;;;;;;;;4948272;28;36898;-81
2021/06/25 01:08:25;;;;;;;13.30;10.80;;;;;;;;;;4955248;28;39622;-81
2021/06/25 01:11:33;;;;;;;11.45;10.10;;;;;;;;;;4978336;28;38747;-81
2021/06/25 01:14:12;;;;;;;10.70;9.70;;;;;;;;;;4963483;28;50157;-81
2021/06/25 01:16:40;;;;;;;14.50;9.73;;;;;;;;;;4974991;28;48407;-81
2021/06/25 01:19:21;;;;;;;9.30;8.50;;;;;;;;;;4976805;28;38955;-81
2021/06/25 01:22:07;;;;;;;10.90;8.27;;;;;;;;;;4980257;28;39677;-81
2021/06/25 01:24:41;;;;;;;9.75;8.63;;;;;;;;;;4962440;28;48942;-81
2021/06/25 01:27:16;;;;;;;12.27;9.40;;;;;;;;;;4966185;28;37030;-81
2021/06/25 01:29:43;;;;;;;9.38;8.40;;;;;;;;;;4966953;28;39002;-81
2021/06/25 01:32:13;;;;;;;10.10;8.98;;;;;;;;;;4958148;28;38245;-81
2021/06/25 01:34:49;;;;;;;13.80;9.93;;;;;;;;;;4944353;28;36874;-81
2021/06/25 01:37:15;;;;;;;13.90;9.52;;;;;;;;;;4971043;28;36056;-80
2021/06/25 01:39:42;;;;;;;10.95;9.90;;;;;;;;;;4967340;28;39556;-81
2021/06/25 01:42:11;;;;;;;12.50;10.45;;;;;;;;;;4971499;28;38646;-81
2021/06/25 01:44:53;;;;;;;11.90;10.70;;;;;;;;;;4963264;28;37819;-81
2021/06/25 01:47:29;;;;;;;12.35;9.55;;;;;;;;;;4973174;28;37227;-81
2021/06/25 01:50:10;;;;;;;12.02;10.75;;;;;;;;;;4954685;28;39953;-82
2021/06/25 01:52:36;;;;;;;12.80;11.18;;;;;;;;;;4965902;28;49624;-82
2021/06/25 01:55:05;;;;;;;11.30;10.18;;;;;;;;;;4970097;28;37927;-81
2021/06/25 01:57:34;;;;;;;14.18;11.30;;;;;;;;;;4965106;28;48508;-81
2021/06/25 02:00:01;;;;;;;11.73;10.05;;;;;;;;;;4960006;28;38020;-81
2021/06/25 02:02:29;;;;;;;15.55;11.02;;;;;;;;;;4974195;28;38438;-81
2021/06/25 02:05:06;;;;;;;12.75;10.32;;;;;;;;;;4977912;28;38113;-81
2021/06/25 02:07:34;;;;;;;11.30;10.00;;;;;;;;;;4944505;28;48441;-82
2021/06/25 02:10:08;;;;;;;12.90;11.07;;;;;;;;;;4960414;28;39321;-82
2021/06/25 02:13:07;;;;;;;16.23;10.65;;;;;;;;;;4972767;28;48974;-82
2021/06/25 02:18:24;;;;;;;13.88;11.60;;;;;;;;;;5565682;23;20061;-80
2021/06/25 02:21:00;;;;;;;14.25;11.80;;;;;;;;;;5035958;28;40375;-80
2021/06/25 02:23:41;;;;;;;15.50;13.82;;;;;;;;;;5011456;28;38326;-80
2021/06/25 02:26:13;;;;;;;15.60;14.00;;;;;;;;;;5003987;28;37040;-80
2021/06/25 02:28:50;;;;;;;19.95;16.45;;;;;;;;;;4996755;28;37472;-81
2021/06/25 02:31:24;;;;;;;21.35;16.38;;;;;;;;;;5006595;28;39636;-80
2021/06/25 02:33:58;;;;;;;20.77;18.08;;;;;;;;;;5014474;28;37559;-80
2021/06/25 02:36:48;;;;;;;23.02;18.85;;;;;;;;;;5013903;28;37831;-80
2021/06/25 02:39:21;;;;;;;21.30;18.98;;;;;;;;;;5002109;28;37649;-81
2021/06/25 02:41:57;;;;;;;23.52;19.30;;;;;;;;;;4983870;28;40243;-80
2021/06/25 02:44:36;;;;;;;21.90;19.13;;;;;;;;;;5007074;28;38237;-80
2021/06/25 02:50:08;;;;;;;23.05;19.48;;;;;;;;;;5003570;28;37952;-81
2021/06/25 02:56:05;;;;;;;25.98;20.90;;;;;;;;;;5000395;28;49988;-80
2021/06/25 02:58:31;;;;;;;26.80;21.05;;;;;;;;;;4988351;28;48144;-81
2021/06/25 03:01:07;;;;;;;25.52;21.17;;;;;;;;;;5016709;28;37580;-80
2021/06/25 03:03:37;;;;;;;24.33;20.52;;;;;;;;;;5017784;28;48382;-81
2021/06/25 03:06:04;;;;;;;26.67;20.75;;;;;;;;;;5011494;28;38589;-81
2021/06/25 03:08:48;;;;;;;25.08;20.48;;;;;;;;;;5016405;28;38066;-81
2021/06/25 03:11:26;;;;;;;23.23;19.17;;;;;;;;;;5005936;28;37188;-81
2021/06/25 03:13:52;;;;;;;24.65;19.65;;;;;;;;;;5016946;28;38610;-80
2021/06/25 03:19:25;;;;;;;24.80;21.58;;;;;;;;;;5018697;28;40627;-81
2021/06/25 03:21:54;;;;;;;24.38;21.27;;;;;;;;;;5016492;28;37597;-81
2021/06/25 03:24:30;;;;;;;25.23;21.80;;;;;;;;;;5017035;28;39270;-81
2021/06/25 03:27:02;;;;;;;21.08;18.88;;;;;;;;;;4977445;28;40337;-81
2021/06/25 03:29:32;;;;;;;22.38;19.27;;;;;;;;;;5005818;28;48006;-81
2021/06/25 03:32:07;;;;;;;24.77;20.60;;;;;;;;;;4985852;28;38699;-80
2021/06/25 03:34:34;;;;;;;23.10;19.35;;;;;;;;;;5010744;28;48301;-81
2021/06/25 03:37:02;;;;;;;22.88;18.80;;;;;;;;;;4996912;28;38054;-82
2021/06/25 03:40:03;;;;;;;24.95;19.80;;;;;;;;;;5017446;28;47428;-82
2021/06/25 03:42:33;;;;;;;26.48;20.50;;;;;;;;;;5004845;28;48299;-80
2021/06/25 03:45:03;;;;;;;23.58;19.90;;;;;;;;;;5014479;28;39767;-82
2021/06/25 03:50:37;;;;;;;24.33;19.60;;;;;;;;;;5027983;28;50607;-81
2021/06/25 03:53:07;;;;;;;26.52;18.73;;;;;;;;;;5004318;28;37628;-80
2021/06/25 03:58:45;;;;;;;25.75;20.15;;;;;;;;;;4988668;28;50279;-80
2021/06/25 04:01:13;;;;;;;23.85;20.63;;;;;;;;;;4993241;28;38485;-81
2021/06/25 04:03:40;;;;;;;23.45;20.90;;;;;;;;;;5009184;28;37538;-80
2021/06/25 04:06:08;;;;;;;26.65;21.50;;;;;;;;;;4988489;28;38787;-80
2021/06/25 04:08:53;;;;;;;27.70;22.85;;;;;;;;;;5003423;28;38860;-81
2021/06/25 04:11:20;;;;;;;28.00;21.40;;;;;;;;;;4983094;28;38241;-80
2021/06/25 04:13:50;;;;;;;27.35;21.15;;;;;;;;;;5012497;28;37297;-81
2021/06/25 04:16:34;;;;;;;26.58;22.58;;;;;;;;;;4968520;28;39120;-81
2021/06/25 04:19:04;;;;;;;28.52;22.33;;;;;;;;;;4982467;28;37680;-80
2021/06/25 04:22:04;;;;;;;28.95;21.83;;;;;;;;;;5004773;28;48581;-80
2021/06/25 04:24:32;;;;;;;30.52;23.65;;;;;;;;;;5005851;28;49035;-81
2021/06/25 04:30:11;;;;;;;37.42;24.90;;;;;;;;;;5018018;28;50570;-81
2021/06/25 04:32:42;;;;;;;31.98;24.98;;;;;;;;;;4998077;28;48599;-80
2021/06/25 04:35:26;;;;;;;33.83;25.50;;;;;;;;;;4987266;28;36371;-82
2021/06/25 04:37:52;;;;;;;33.65;25.75;;;;;;;;;;5010669;28;38085;-81
2021/06/25 04:40:23;;;;;;;36.72;26.35;;;;;;;;;;5006687;28;38429;-81
2021/06/25 04:42:50;;;;;;;38.78;28.60;;;;;;;;;;4968522;28;38962;-81
2021/06/25 04:45:32;;;;;;;35.85;28.00;;;;;;;;;;4985759;28;37144;-81
2021/06/25 04:48:00;;;;;;;37.03;28.27;;;;;;;;;;5008866;28;37708;-81
2021/06/25 04:50:31;;;;;;;44.97;29.60;;;;;;;;;;4995060;28;37111;-81
2021/06/25 04:52:57;;;;;;;39.58;29.25;;;;;;;;;;5012980;28;37039;-81
2021/06/25 04:58:40;;;;;;;41.97;30.80;;;;;;;;;;5023901;28;49274;-81
2021/06/25 05:01:15;;;;;;;40.78;30.63;;;;;;;;;;5021032;28;39830;-80
2021/06/25 05:03:48;;;;;;;42.80;31.25;;;;;;;;;;4997104;28;38376;-80
2021/06/25 05:06:28;;;;;;;41.40;32.88;;;;;;;;;;5009260;28;38771;-81
2021/06/25 05:08:56;;;;;;;41.53;30.98;;;;;;;;;;5009735;28;40916;-81
2021/06/25 05:11:29;;;;;;;45.83;31.25;;;;;;;;;;4993915;28;40148;-80
2021/06/25 05:13:58;;;;;;;;;;;;;;;;;;5006022;28;38480;-80
2021/06/25 05:16:25;;;;;;;41.22;30.25;;;;;;;;;;5001287;28;37313;-81
2021/06/25 05:18:55;;;;;;;39.67;28.73;;;;;;;;;;5018447;28;39175;-80
2021/06/25 05:21:25;;;;;;;39.70;29.60;;;;;;;;;;5000612;28;39943;-80
2021/06/25 05:24:10;;;;;;;38.58;27.33;;;;;;;;;;5004511;28;37245;-80
2021/06/25 05:26:41;;;;;;;34.85;25.50;;;;;;;;;;4987639;28;48361;-80
2021/06/25 05:29:07;;;;;;;36.95;26.95;;;;;;;;;;4989768;28;38838;-79
2021/06/25 05:31:34;;;;;;;38.88;26.73;;;;;;;;;;5008036;28;39793;-80
2021/06/25 05:34:06;;;;;;;34.45;25.30;;;;;;;;;;4995247;28;38058;-80
2021/06/25 05:36:33;;;;;;;35.65;25.63;;;;;;;;;;4963168;28;47171;-80
2021/06/25 05:38:59;;;;;;;36.20;25.95;;;;;;;;;;4985135;28;39018;-80
2021/06/25 05:41:30;;;;;;;37.97;28.42;;;;;;;;;;4983807;28;39941;-80
2021/06/25 05:43:57;;;;;;;39.83;27.13;;;;;;;;;;4988106;28;36642;-80
2021/06/25 05:46:24;;;;;;;41.83;27.73;;;;;;;;;;4989602;28;39353;-80
2021/06/25 05:52:19;;;;;;;41.97;26.88;;;;;;;;;;4990519;28;51484;-82
2021/06/25 05:54:46;;;;;;;32.00;24.63;;;;;;;;;;4999079;28;48140;-82
2021/06/25 05:57:12;;;;;;;32.72;24.45;;;;;;;;;;5001932;28;38582;-79
2021/06/25 05:59:42;;;;;;;32.78;25.88;;;;;;;;;;4978465;28;40790;-79
2021/06/25 06:02:08;;;;;;;33.08;24.45;;;;;;;;;;4975705;28;38696;-80
2021/06/25 06:04:35;;;;;;;31.15;22.70;;;;;;;;;;4979700;28;38516;-80
2021/06/25 06:07:01;;;;;;;30.20;21.98;;;;;;;;;;4981438;28;38426;-80
2021/06/25 06:09:28;;;;;;;28.75;21.30;;;;;;;;;;4978205;28;49590;-79
2021/06/25 06:11:54;;;;;;;30.15;22.15;;;;;;;;;;4986692;28;37252;-80
2021/06/25 06:14:42;;;;;;;;;;;;;;;;;;;;;
2021/06/25 06:20:25;;;;;;;28.63;21.83;;;;;;;;;;4989117;28;39844;-81
2021/06/25 06:31:33;;;;;;;25.45;19.40;;;;;;;;;;5001063;28;50418;-80
2021/06/25 06:37:19;;;;;;;;;;;;;;;;;;;;;
2021/06/25 06:40:00;;;;;;;23.98;18.77;;;;;;;;;;4993365;28;37775;-81
2021/06/25 06:42:40;;;;;;;24.75;19.17;;;;;;;;;;4987170;28;41094;-80
2021/06/25 06:45:16;;;;;;;22.38;17.60;;;;;;;;;;4964377;28;37670;-81
2021/06/25 06:47:48;;;;;;;22.77;16.80;;;;;;;;;;4974211;28;37955;-80
2021/06/25 06:50:15;;;;;;;21.35;16.80;;;;;;;;;;4999138;28;37036;-80
2021/06/25 06:52:43;;;;;;;21.85;16.60;;;;;;;;;;4991407;28;41942;-80
2021/06/25 06:55:13;;;;;;;21.35;17.80;;;;;;;;;;4992678;28;40113;-79
2021/06/25 06:57:40;;;;;;;19.13;15.85;;;;;;;;;;4994205;28;37620;-80
2021/06/25 07:00:10;;;;;;;24.05;16.77;;;;;;;;;;4992626;28;39763;-80
2021/06/25 07:02:37;;;;;;;20.05;16.00;;;;;;;;;;4994770;28;47769;-81
2021/06/25 07:05:07;;;;;;;24.15;16.42;;;;;;;;;;5007071;28;38674;-82
2021/06/25 07:10:13;;;;;;;20.67;14.82;;;;;;;;;;5200406;23;20047;-81
2021/06/25 07:12:44;;;;;;;20.10;14.88;;;;;;;;;;4968004;28;39257;-81
2021/06/25 07:15:14;;;;;;;21.33;14.00;;;;;;;;;;4976415;28;37392;-79
2021/06/25 07:17:51;;;;;;;16.77;13.23;;;;;;;;;;4973643;28;38036;-80
2021/06/25 07:20:18;;;;;;;19.13;12.95;;;;;;;;;;4989704;28;36629;-80
2021/06/25 07:22:50;;;;;;;15.00;11.75;;;;;;;;;;4985632;28;38596;-81
2021/06/25 07:25:20;;;;;;;14.82;11.32;;;;;;;;;;4980680;28;38673;-80
2021/06/25 07:28:01;;;;;;;15.25;11.73;;;;;;;;;;4979143;28;38375;-82
2021/06/25 07:30:54;;;;;;;15.63;11.70;;;;;;;;;;4955833;28;48860;-82
2021/06/25 07:33:38;;;;;;;14.57;10.13;;;;;;;;;;5841378;23;39033;-80
2021/06/25 07:39:10;;;;;;;14.43;10.65;;;;;;;;;;5221654;23;50611;-80
2021/06/25 07:42:17;;;;;;;20.45;12.18;;;;;;;;;;4932475;28;37372;-80
2021/06/25 07:44:59;;;;;;;17.50;10.80;;;;;;;;;;4951983;28;48401;-81
2021/06/25 07:50:29;;;;;;;17.75;11.52;;;;;;;;;;4946347;28;50311;-80
2021/06/25 07:53:07;;;;;;;15.88;11.23;;;;;;;;;;4961887;28;36700;-81
2021/06/25 07:55:43;;;;;;;15.35;10.98;;;;;;;;;;4943516;28;48736;-81
2021/06/25 07:58:17;;;;;;;13.15;10.35;;;;;;;;;;4935412;28;39817;-80
2021/06/25 08:00:46;;;;;;;15.27;11.13;;;;;;;;;;4954894;28;37271;-81
2021/06/25 08:03:27;;;;;;;18.50;11.32;;;;;;;;;;4955091;28;38920;-80
2021/06/25 08:06:20;;;;;;;15.93;11.40;;;;;;;;;;4954948;28;36814;-80
2021/06/25 08:08:57;;;;;;;17.20;11.18;;;;;;;;;;4968727;28;47867;-81
2021/06/25 08:11:41;;;;;;;17.05;10.90;;;;;;;;;;4949967;28;39866;-80
2021/06/25 08:14:12;;;;;;;15.63;11.25;;;;;;;;;;4972132;28;37628;-81
2021/06/25 08:16:39;;;;;;;17.83;11.60;;;;;;;;;;4972491;28;40595;-80
2021/06/25 08:19:15;;;;;;;12.50;10.23;;;;;;;;;;4949038;28;37444;-82
2021/06/25 08:21:50;;;;;;;15.38;11.45;;;;;;;;;;4931602;28;37036;-80
2021/06/25 08:24:50;;;;;;;15.82;11.68;;;;;;;;;;4929191;28;37135;-82
2021/06/25 08:27:27;;;;;;;18.85;12.80;;;;;;;;;;5136734;23;40419;-81
2021/06/25 08:41:20;;;;;;;17.50;13.98;;;;;;;;;;5654070;23;20058;-79
2021/06/25 08:44:03;;;;;;;19.35;13.75;;;;;;;;;;5003646;28;37919;-81
2021/06/25 08:46:33;;;;;;;17.40;13.13;;;;;;;;;;4984445;28;48352;-80
2021/06/25 08:49:11;;;;;;;18.13;14.07;;;;;;;;;;4958722;28;41206;-80
2021/06/25 08:52:08;;;;;;;16.98;13.50;;;;;;;;;;4975699;28;48378;-80
2021/06/25 08:54:48;;;;;;;17.90;12.95;;;;;;;;;;4970972;28;39668;-81
2021/06/25 08:57:20;;;;;;;18.70;14.18;;;;;;;;;;4911073;28;36829;-80
2021/06/25 08:59:46;;;;;;;16.38;12.75;;;;;;;;;;5056309;23;39263;-80
2021/06/25 09:02:15;;;;;;;20.55;13.70;;;;;;;;;;4993288;28;38794;-82
2021/06/25 09:04:42;;;;;;;17.75;12.25;;;;;;;;;;5008219;28;38442;-81
2021/06/25 09:09:53;;;;;;;24.00;15.15;;;;;;;;;;5033328;28;20042;-82
2021/06/25 09:12:41;;;;;;;20.88;14.70;;;;;;;;;;4976887;28;38261;-80
2021/06/25 09:18:07;;;;;;;20.63;15.40;;;;;;;;;;4990645;28;20816;-79
2021/06/25 09:20:53;;;;;;;20.77;15.48;;;;;;;;;;5162933;23;48627;-80
2021/06/25 09:23:49;;;;;;;21.63;15.25;;;;;;;;;;4938565;28;39409;-78
2021/06/25 09:29:25;;;;;;;17.33;11.95;;;;;;;;;;4963911;28;39193;-82
2021/06/25 09:31:57;;;;;;;;;;;;;;;;;;4935809;28;39567;-80
2021/06/25 09:34:43;;;;;;;21.80;18.40;;;;;;;;;;4924642;28;37964;-79
2021/06/25 09:37:14;;;;;;;24.33;19.60;;;;;;;;;;4922077;28;37317;-78
2021/06/25 09:39:44;;;;;;;23.60;19.42;;;;;;;;;;4954180;28;37303;-80
2021/06/25 09:42:25;;;;;;;22.15;18.17;;;;;;;;;;4923071;28;38033;-81
2021/06/25 09:45:01;;;;;;;23.17;17.55;;;;;;;;;;4928346;28;37335;-80
2021/06/25 09:47:29;;;;;;;21.63;18.80;;;;;;;;;;4941705;28;48820;-80
2021/06/25 09:50:18;;;;;;;22.92;20.33;;;;;;;;;;4938166;28;36108;-80
2021/06/25 09:53:00;;;;;;;27.92;25.10;;;;;;;;;;4944576;28;47680;-80
2021/06/25 09:55:30;;;;;;;28.77;25.38;;;;;;;;;;4931514;28;38232;-80
2021/06/25 10:03:48;;;;;;;34.58;29.35;;;;;;;;;;4948516;28;49090;-79
2021/06/25 10:06:15;;;;;;;35.55;30.58;;;;;;;;;;4945560;28;39832;-78
2021/06/25 10:08:44;;;;;;;34.78;29.45;;;;;;;;;;4939374;28;38789;-78
2021/06/25 10:11:11;;;;;;;32.53;29.00;;;;;;;;;;4947080;28;37619;-78
2021/06/25 10:13:39;;;;;;;31.63;28.23;;;;;;;;;;4951402;28;41890;-77
2021/06/25 10:16:25;;;;;;;27.95;24.92;;;;;;;;;;4926011;28;40663;-80
2021/06/25 10:18:56;;;;;;;26.30;22.88;;;;;;;;;;4950371;28;38474;-79
2021/06/25 10:21:25;;;;;;;30.58;23.85;;;;;;;;;;4948017;28;38377;-78
2021/06/25 10:23:59;;;;;;;26.42;22.67;;;;;;;;;;4968187;28;42231;-80
2021/06/25 10:26:33;;;;;;;29.92;25.98;;;;;;;;;;4961190;28;38644;-78
2021/06/25 10:29:01;;;;;;;29.52;26.35;;;;;;;;;;4960282;28;38681;-79
2021/06/25 10:31:32;;;;;;;28.35;24.30;;;;;;;;;;4960139;28;38425;-78
2021/06/25 10:34:02;;;;;;;27.95;24.88;;;;;;;;;;4970162;28;39066;-79
2021/06/25 10:36:36;;;;;;;24.95;22.35;;;;;;;;;;4962217;28;50179;-78
2021/06/25 10:39:09;;;;;;;24.75;22.20;;;;;;;;;;4972407;28;37515;-79
2021/06/25 10:41:57;;;;;;;23.95;21.58;;;;;;;;;;4953131;28;46510;-78
2021/06/25 10:44:43;;;;;;;24.65;22.15;;;;;;;;;;4961416;28;40189;-78
2021/06/25 10:47:32;;;;;;;24.52;22.20;;;;;;;;;;4958397;28;38551;-80
2021/06/25 10:50:04;;;;;;;24.83;22.33;;;;;;;;;;4953947;28;38101;-80
2021/06/25 10:52:32;;;;;;;23.75;21.33;;;;;;;;;;4939730;28;50195;-77
2021/06/25 10:55:17;;;;;;;21.77;19.48;;;;;;;;;;4939930;28;39467;-80
2021/06/25 10:57:49;;;;;;;18.80;16.90;;;;;;;;;;4936609;28;49342;-80
2021/06/25 11:00:25;;;;;;;16.80;12.50;;;;;;;;;;4916827;28;39451;-79
2021/06/25 11:02:53;;;;;;;14.73;13.30;;;;;;;;;;4946110;28;38552;-78
2021/06/25 11:05:19;;;;;;;16.70;13.52;;;;;;;;;;4937132;28;39977;-79
2021/06/25 11:07:50;;;;;;;15.52;13.88;;;;;;;;;;4932266;28;40064;-79
2021/06/25 11:10:24;;;;;;;14.95;13.43;;;;;;;;;;4953023;28;39367;-80
2021/06/25 11:13:10;;;;;;;16.50;14.80;;;;;;;;;;4956592;28;36245;-80
2021/06/25 11:15:42;;;;;;;14.43;13.02;;;;;;;;;;4910994;28;47537;-79
2021/06/25 11:18:18;;;;;;;13.45;12.15;;;;;;;;;;4940692;28;37752;-80
2021/06/25 11:20:52;;;;;;;15.18;13.70;;;;;;;;;;4960130;28;38229;-80
2021/06/25 11:23:40;;;;;;;16.55;14.82;;;;;;;;;;4945734;28;37069;-78
2021/06/25 11:26:31;;;;;;;14.77;13.18;;;;;;;;;;4936715;28;39989;-79
2021/06/25 11:29:09;;;;;;;15.05;12.70;;;;;;;;;;4939556;28;40073;-80
2021/06/25 11:31:39;;;;;;;11.30;10.20;;;;;;;;;;4941471;28;49651;-82
2021/06/25 11:34:05;;;;;;;15.40;13.15;;;;;;;;;;4947869;28;37829;-80
2021/06/25 11:36:32;;;;;;;16.05;12.82;;;;;;;;;;4914657;28;40757;-79
2021/06/25 11:39:17;;;;;;;13.55;12.25;;;;;;;;;;4937178;28;38317;-81
2021/06/25 11:41:52;;;;;;;13.00;11.32;;;;;;;;;;4921151;28;47330;-78
2021/06/25 11:44:19;;;;;;;11.43;10.32;;;;;;;;;;4935109;28;36529;-79
2021/06/25 11:47:04;;;;;;;15.18;11.38;;;;;;;;;;4936389;28;40228;-78
2021/06/25 11:49:47;;;;;;;12.50;10.40;;;;;;;;;;4935366;28;49223;-78
2021/06/25 11:52:16;;;;;;;12.70;11.40;;;;;;;;;;4900607;28;40487;-79
2021/06/25 11:54:52;;;;;;;13.05;11.75;;;;;;;;;;4931574;28;36447;-79
2021/06/25 11:57:31;;;;;;;15.75;11.55;;;;;;;;;;4946278;28;39338;-79
2021/06/25 12:00:08;;;;;;;13.40;12.00;;;;;;;;;;4957358;28;37065;-79
2021/06/25 12:02:43;;;;;;;13.52;12.13;;;;;;;;;;4961324;28;48693;-79
2021/06/25 12:05:16;;;;;;;19.48;17.10;;;;;;;;;;4952294;28;38424;-78
2021/06/25 12:07:43;;;;;;;18.95;16.95;;;;;;;;;;4962279;28;39430;-79
2021/06/25 12:10:19;;;;;;;20.23;15.80;;;;;;;;;;4948112;28;40599;-80
2021/06/25 12:12:55;;;;;;;18.75;15.63;;;;;;;;;;4955288;28;37964;-79
2021/06/25 12:15:28;;;;;;;22.83;19.30;;;;;;;;;;4962842;28;37745;-78
2021/06/25 12:17:59;;;;;;;24.05;19.73;;;;;;;;;;4968711;28;39565;-80
2021/06/25 12:20:33;;;;;;;23.50;19.65;;;;;;;;;;4974529;28;38997;-81
2021/06/25 12:23:03;;;;;;;27.17;21.40;;;;;;;;;;4939627;28;38282;-79
2021/06/25 12:25:33;;;;;;;24.92;18.70;;;;;;;;;;4940454;28;48484;-80
2021/06/25 12:28:00;;;;;;;22.45;16.48;;;;;;;;;;4937997;28;39354;-78
2021/06/25 12:30:27;;;;;;;18.20;14.18;;;;;;;;;;4948581;28;37829;-79
2021/06/25 12:33:06;;;;;;;17.65;15.02;;;;;;;;;;4953167;28;37909;-80
2021/06/25 12:35:37;;;;;;;21.63;14.77;;;;;;;;;;4940631;28;47644;-80
2021/06/25 12:38:05;;;;;;;22.52;17.27;;;;;;;;;;4943263;28;38792;-79
2021/06/25 12:40:52;;;;;;;20.02;17.40;;;;;;;;;;4967605;28;39791;-79
2021/06/25 12:43:21;;;;;;;21.42;16.83;;;;;;;;;;4957341;28;38351;-80
2021/06/25 12:45:51;;;;;;;19.73;17.13;;;;;;;;;;4949307;28;38147;-80
2021/06/25 12:48:34;;;;;;;20.98;18.58;;;;;;;;;;4954573;28;38600;-78
2021/06/25 12:51:00;;;;;;;;;;;;;;;;;;4933601;28;41893;-78
2021/06/25 12:53:30;;;;;;;23.45;20.95;;;;;;;;;;4944181;28;40289;-79
2021/06/25 12:56:12;;;;;;;25.13;20.77;;;;;;;;;;4938231;28;38688;-77
2021/06/25 12:58:39;;;;;;;19.80;17.70;;;;;;;;;;4938493;28;47201;-81
2021/06/25 13:01:06;;;;;;;21.77;16.70;;;;;;;;;;4907583;28;39788;-79
2021/06/25 13:03:33;;;;;;;18.58;16.52;;;;;;;;;;4939326;28;39670;-78
2021/06/25 13:06:00;;;;;;;16.40;14.50;;;;;;;;;;4941504;28;37717;-77
2021/06/25 13:08:28;;;;;;;16.20;14.55;;;;;;;;;;4947278;28;39324;-77
2021/06/25 13:10:56;;;;;;;18.02;14.23;;;;;;;;;;4936218;28;39483;-77
2021/06/25 13:13:24;;;;;;;18.88;14.45;;;;;;;;;;4945849;28;38657;-77
2021/06/25 13:16:04;;;;;;;15.43;12.95;;;;;;;;;;4932730;28;36819;-78
2021/06/25 13:18:37;;;;;;;18.77;13.60;;;;;;;;;;4930535;28;49418;-78
2021/06/25 13:21:22;;;;;;;20.30;15.10;;;;;;;;;;4942884;28;39392;-77
2021/06/25 13:23:53;;;;;;;17.35;15.45;;;;;;;;;;4981057;28;38391;-78
2021/06/25 13:26:29;;;;;;;20.42;16.15;;;;;;;;;;4933488;28;40510;-78
2021/06/25 13:28:56;;;;;;;17.67;15.10;;;;;;;;;;4985584;28;38801;-77
2021/06/25 13:31:28;;;;;;;18.23;14.63;;;;;;;;;;4966068;28;39751;-77
2021/06/25 13:33:54;;;;;;;17.55;15.57;;;;;;;;;;4962707;28;38048;-77
2021/06/25 13:36:21;;;;;;;21.00;16.70;;;;;;;;;;4957475;28;37821;-78
2021/06/25 13:38:47;;;;;;;18.67;16.27;;;;;;;;;;4972883;28;38582;-77
2021/06/25 13:41:20;;;;;;;21.02;16.70;;;;;;;;;;4963635;28;40976;-77
2021/06/25 13:43:50;;;;;;;18.85;16.23;;;;;;;;;;4987257;28;38633;-78
2021/06/25 13:46:20;;;;;;;19.10;17.10;;;;;;;;;;4970252;28;39901;-77
2021/06/25 13:49:05;;;;;;;20.67;17.95;;;;;;;;;;4951774;28;39333;-78
2021/06/25 13:51:32;;;;;;;24.23;20.17;;;;;;;;;;4994340;28;49182;-78
2021/06/25 13:53:58;;;;;;;23.65;19.65;;;;;;;;;;4964383;28;37806;-79
2021/06/25 13:56:28;;;;;;;23.50;19.35;;;;;;;;;;4976863;28;37087;-79
2021/06/25 13:59:02;;;;;;;22.42;19.98;;;;;;;;;;4974521;28;37953;-79
2021/06/25 14:01:52;;;;;;;23.95;19.08;;;;;;;;;;4967819;28;38333;-78
2021/06/25 14:04:23;;;;;;;23.42;19.77;;;;;;;;;;4967418;28;37536;-79
2021/06/25 14:07:00;;;;;;;26.08;21.15;;;;;;;;;;4976301;28;38222;-79
2021/06/25 14:09:28;;;;;;;25.00;19.42;;;;;;;;;;4989241;28;39298;-78
2021/06/25 14:11:55;;;;;;;22.75;19.70;;;;;;;;;;4977281;28;38945;-80
2021/06/25 14:14:22;;;;;;;24.05;20.90;;;;;;;;;;4963447;28;36866;-78
2021/06/25 14:16:58;;;;;;;28.45;21.42;;;;;;;;;;4963012;28;37748;-79
2021/06/25 14:19:31;;;;;;;22.08;19.30;;;;;;;;;;4993923;28;38768;-79
2021/06/25 14:21:58;;;;;;;23.55;18.95;;;;;;;;;;4966729;28;38421;-80
2021/06/25 14:24:25;;;;;;;22.52;20.00;;;;;;;;;;4952897;28;37764;-80
2021/06/25 14:26:52;;;;;;;24.88;19.95;;;;;;;;;;4944570;28;37899;-79
2021/06/25 14:29:20;;;;;;;22.98;18.95;;;;;;;;;;4948543;28;39535;-80
2021/06/25 14:31:48;;;;;;;25.90;20.08;;;;;;;;;;4967761;28;39648;-80
2021/06/25 14:34:17;;;;;;;24.52;20.15;;;;;;;;;;4958608;28;38261;-82
2021/06/25 14:36:43;;;;;;;23.50;19.65;;;;;;;;;;4971340;28;36543;-81
2021/06/25 14:39:13;;;;;;;22.35;19.58;;;;;;;;;;4958614;28;40613;-80
2021/06/25 14:41:39;;;;;;;24.40;20.85;;;;;;;;;;4960843;28;38043;-80
2021/06/25 14:44:07;;;;;;;24.70;21.13;;;;;;;;;;4964458;28;36398;-80
2021/06/25 14:46:36;;;;;;;24.85;20.02;;;;;;;;;;4962159;28;37241;-80
2021/06/25 14:49:03;;;;;;;18.15;14.68;;;;;;;;;;4915925;28;37478;-79
2021/06/25 14:51:30;;;;;;;17.70;12.27;;;;;;;;;;4952293;28;38064;-80
2021/06/25 14:53:56;;;;;;;13.02;10.85;;;;;;;;;;4948563;28;38928;-79
2021/06/25 14:56:23;;;;;;;10.52;8.55;;;;;;;;;;4963623;28;37891;-79
2021/06/25 14:58:49;;;;;;;17.27;10.40;;;;;;;;;;4938563;28;38228;-78
2021/06/25 15:01:16;;;;;;;13.43;9.55;;;;;;;;;;4924947;28;39499;-77
2021/06/25 15:03:42;;;;;;;11.90;9.68;;;;;;;;;;4936782;28;37364;-78
2021/06/25 15:06:13;;;;;;;12.75;9.23;;;;;;;;;;4948906;28;36287;-78
2021/06/25 15:08:40;;;;;;;13.70;10.77;;;;;;;;;;4948258;28;37580;-78
2021/06/25 15:11:06;;;;;;;14.18;10.90;;;;;;;;;;4948732;28;37881;-78
2021/06/25 15:13:32;;;;;;;14.77;11.88;;;;;;;;;;4963603;28;36665;-78
2021/06/25 15:15:59;;;;;;;16.45;11.98;;;;;;;;;;4940719;28;38818;-78
2021/06/25 15:18:25;;;;;;;16.65;12.73;;;;;;;;;;4926868;28;39836;-78
2021/06/25 15:20:57;;;;;;;16.00;11.82;;;;;;;;;;4936721;28;38987;-77
2021/06/25 15:23:24;;;;;;;;;;;;;;;;;;4943315;28;38906;-78
2021/06/25 15:25:50;;;;;;;19.80;12.55;;;;;;;;;;4952534;28;38121;-78
2021/06/25 15:28:17;;;;;;;16.50;12.82;;;;;;;;;;4928659;28;42430;-78
2021/06/25 15:30:43;;;;;;;20.38;14.70;;;;;;;;;;4918315;28;38536;-78
2021/06/25 15:33:10;;;;;;;20.17;12.85;;;;;;;;;;4945804;28;37772;-78
2021/06/25 15:35:39;;;;;;;16.00;13.23;;;;;;;;;;4957101;28;35736;-77
2021/06/25 15:38:09;;;;;;;16.42;12.73;;;;;;;;;;4949820;28;38924;-78
2021/06/25 15:40:37;;;;;;;16.25;12.05;;;;;;;;;;4932546;28;39329;-79
2021/06/25 15:43:04;;;;;;;20.40;13.48;;;;;;;;;;4947915;28;36694;-79
2021/06/25 15:45:31;;;;;;;17.75;12.45;;;;;;;;;;4948387;28;36254;-79
2021/06/25 15:47:59;;;;;;;16.50;11.82;;;;;;;;;;4961545;28;41770;-78
2021/06/25 15:50:25;;;;;;;14.73;11.00;;;;;;;;;;4932618;28;39375;-78
2021/06/25 15:52:51;;;;;;;13.32;11.18;;;;;;;;;;4949358;28;37682;-79
2021/06/25 15:55:18;;;;;;;13.40;10.43;;;;;;;;;;4946839;28;40404;-80
2021/06/25 15:57:45;;;;;;;12.65;10.60;;;;;;;;;;4961457;28;37847;-80
2021/06/25 16:00:12;;;;;;;16.42;11.73;;;;;;;;;;4930363;28;38511;-80
2021/06/25 16:02:38;;;;;;;15.02;10.75;;;;;;;;;;4957702;28;38332;-80
2021/06/25 16:05:08;;;;;;;14.98;10.20;;;;;;;;;;4952899;28;36006;-80
2021/06/25 16:07:36;;;;;;;13.85;9.95;;;;;;;;;;4959434;28;39502;-80
2021/06/25 16:10:09;;;;;;;13.32;10.73;;;;;;;;;;4945515;28;38274;-81
2021/06/25 16:12:58;;;;;;;13.30;9.88;;;;;;;;;;4945223;29;48315;-80
2021/06/25 16:15:24;;;;;;;12.38;9.25;;;;;;;;;;4952171;28;37433;-80
2021/06/25 16:17:51;;;;;;;15.68;10.77;;;;;;;;;;4974932;28;38919;-81